sensor_id;sensor_type;location;lat;lon;timestamp;pressure;altitude;pressure_sealevel;temperature;humidity
49341;BME280;35209;51.050;13.678;2023-03-16T00:01:57;100482.63;;;0.20;91.46
49341;BME280;35209;51.050;13.678;2023-03-16T00:06:59;100475.34;;;-0.03;93.03
49341;BME280;35209;51.050;13.678;2023-03-16T00:12:01;100474.06;;;-0.26;93.98
49341;BME280;35209;51.050;13.678;2023-03-16T00:17:06;100473.22;;;-0.25;93.62
49341;BME280;35209;51.050;13.678;2023-03-16T00:22:08;100480.69;;;-0.39;94.10
49341;BME280;35209;51.050;13.678;2023-03-16T00:27:11;100475.63;;;-0.34;94.28
49341;BME280;35209;51.050;13.678;2023-03-16T00:32:18;100481.09;;;-0.61;94.91
49341;BME280;35209;51.050;13.678;2023-03-16T00:37:23;100483.44;;;-0.72;95.94
49341;BME280;35209;51.050;13.678;2023-03-16T00:42:27;100487.94;;;-0.63;95.15
49341;BME280;35209;51.050;13.678;2023-03-16T00:47:32;100488.84;;;-0.61;95.33
49341;BME280;35209;51.050;13.678;2023-03-16T00:52:34;100484.19;;;-0.79;96.08
49341;BME280;35209;51.050;13.678;2023-03-16T00:57:36;100496.63;;;-0.99;97.51
49341;BME280;35209;51.050;13.678;2023-03-16T01:02:38;100494.25;;;-0.90;98.18
49341;BME280;35209;51.050;13.678;2023-03-16T01:07:40;100491.06;;;-0.78;98.13
49341;BME280;35209;51.050;13.678;2023-03-16T01:12:42;100502.84;;;-0.91;98.29
49341;BME280;35209;51.050;13.678;2023-03-16T01:17:45;100504.19;;;-1.07;98.51
49341;BME280;35209;51.050;13.678;2023-03-16T01:22:47;100510.16;;;-1.09;98.77
49341;BME280;35209;51.050;13.678;2023-03-16T01:27:49;100515.16;;;-1.17;99.59
49341;BME280;35209;51.050;13.678;2023-03-16T01:32:51;100528.06;;;-1.15;99.08
49341;BME280;35209;51.050;13.678;2023-03-16T01:37:52;100523.91;;;-1.10;98.91
49341;BME280;35209;51.050;13.678;2023-03-16T01:43:03;100525.47;;;-1.17;99.72
49341;BME280;35209;51.050;13.678;2023-03-16T01:48:10;100528.88;;;-1.18;99.41
49341;BME280;35209;51.050;13.678;2023-03-16T01:53:12;100525.66;;;-1.09;99.38
49341;BME280;35209;51.050;13.678;2023-03-16T01:58:14;100527.78;;;-0.91;99.13
49341;BME280;35209;51.050;13.678;2023-03-16T02:03:17;100527.63;;;-0.97;98.32
49341;BME280;35209;51.050;13.678;2023-03-16T02:08:26;100526.34;;;-1.16;99.21
49341;BME280;35209;51.050;13.678;2023-03-16T02:13:29;100525.88;;;-0.98;98.25
49341;BME280;35209;51.050;13.678;2023-03-16T02:18:35;100521.84;;;-0.87;96.77
49341;BME280;35209;51.050;13.678;2023-03-16T02:23:37;100533.34;;;-1.11;96.85
49341;BME280;35209;51.050;13.678;2023-03-16T02:28:53;100523.84;;;-1.13;98.51
49341;BME280;35209;51.050;13.678;2023-03-16T02:34:04;100531.47;;;-1.18;98.17
49341;BME280;35209;51.050;13.678;2023-03-16T02:39:07;100530.31;;;-1.31;98.69
49341;BME280;35209;51.050;13.678;2023-03-16T02:44:24;100532.44;;;-1.49;99.38
49341;BME280;35209;51.050;13.678;2023-03-16T02:49:39;100531.63;;;-1.46;99.49
49341;BME280;35209;51.050;13.678;2023-03-16T02:54:41;100537.94;;;-1.68;100.00
49341;BME280;35209;51.050;13.678;2023-03-16T02:59:44;100538.59;;;-1.77;100.00
49341;BME280;35209;51.050;13.678;2023-03-16T03:04:46;100538.88;;;-1.66;100.00
49341;BME280;35209;51.050;13.678;2023-03-16T03:09:48;100532.03;;;-1.64;100.00
49341;BME280;35209;51.050;13.678;2023-03-16T03:14:49;100536.09;;;-1.74;100.00
49341;BME280;35209;51.050;13.678;2023-03-16T03:19:58;100540.28;;;-1.78;100.00
49341;BME280;35209;51.050;13.678;2023-03-16T03:25:00;100534.72;;;-1.60;100.00
49341;BME280;35209;51.050;13.678;2023-03-16T03:30:04;100549.91;;;-1.72;100.00
49341;BME280;35209;51.050;13.678;2023-03-16T03:35:06;100548.75;;;-1.82;100.00
49341;BME280;35209;51.050;13.678;2023-03-16T03:40:11;100551.41;;;-1.80;100.00
49341;BME280;35209;51.050;13.678;2023-03-16T03:45:14;100558.06;;;-1.88;100.00
49341;BME280;35209;51.050;13.678;2023-03-16T03:50:17;100560.53;;;-1.91;100.00
49341;BME280;35209;51.050;13.678;2023-03-16T03:55:51;100563.97;;;-1.91;100.00
49341;BME280;35209;51.050;13.678;2023-03-16T04:00:52;100562.69;;;-1.75;100.00
49341;BME280;35209;51.050;13.678;2023-03-16T04:05:55;100558.66;;;-1.65;100.00
49341;BME280;35209;51.050;13.678;2023-03-16T04:10:56;100563.31;;;-1.84;100.00
49341;BME280;35209;51.050;13.678;2023-03-16T04:16:00;100566.69;;;-1.86;100.00
49341;BME280;35209;51.050;13.678;2023-03-16T04:21:16;100569.31;;;-1.85;100.00
49341;BME280;35209;51.050;13.678;2023-03-16T04:26:20;100568.50;;;-1.82;100.00
49341;BME280;35209;51.050;13.678;2023-03-16T04:31:23;100564.06;;;-1.88;100.00
49341;BME280;35209;51.050;13.678;2023-03-16T04:36:26;100560.47;;;-1.94;100.00
49341;BME280;35209;51.050;13.678;2023-03-16T04:41:29;100554.28;;;-2.01;100.00
49341;BME280;35209;51.050;13.678;2023-03-16T04:46:36;100560.00;;;-2.11;100.00
49341;BME280;35209;51.050;13.678;2023-03-16T04:51:41;100556.72;;;-2.06;100.00
49341;BME280;35209;51.050;13.678;2023-03-16T04:56:48;100561.63;;;-2.15;100.00
49341;BME280;35209;51.050;13.678;2023-03-16T05:02:05;100559.44;;;-2.31;100.00
49341;BME280;35209;51.050;13.678;2023-03-16T05:07:07;100560.56;;;-2.21;100.00
49341;BME280;35209;51.050;13.678;2023-03-16T05:12:12;100563.44;;;-2.12;100.00
49341;BME280;35209;51.050;13.678;2023-03-16T05:17:15;100569.13;;;-2.22;100.00
49341;BME280;35209;51.050;13.678;2023-03-16T05:22:19;100560.97;;;-2.38;100.00
49341;BME280;35209;51.050;13.678;2023-03-16T05:27:49;100571.28;;;-2.38;100.00
49341;BME280;35209;51.050;13.678;2023-03-16T05:33:01;100572.00;;;-2.42;100.00
49341;BME280;35209;51.050;13.678;2023-03-16T05:38:03;100580.78;;;-2.35;100.00
49341;BME280;35209;51.050;13.678;2023-03-16T05:43:09;100580.09;;;-2.30;100.00
49341;BME280;35209;51.050;13.678;2023-03-16T05:48:17;100590.19;;;-2.36;100.00
49341;BME280;35209;51.050;13.678;2023-03-16T05:53:23;100594.03;;;-2.21;100.00
49341;BME280;35209;51.050;13.678;2023-03-16T05:58:33;100592.94;;;-1.99;100.00
49341;BME280;35209;51.050;13.678;2023-03-16T06:03:39;100593.13;;;-1.62;100.00
49341;BME280;35209;51.050;13.678;2023-03-16T06:08:46;100602.25;;;-1.73;100.00
49341;BME280;35209;51.050;13.678;2023-03-16T06:13:48;100595.78;;;-1.24;100.00
49341;BME280;35209;51.050;13.678;2023-03-16T06:18:50;100598.25;;;-0.17;99.98
49341;BME280;35209;51.050;13.678;2023-03-16T06:23:52;100598.56;;;2.20;81.39
49341;BME280;35209;51.050;13.678;2023-03-16T06:28:55;100603.84;;;2.29;75.77
49341;BME280;35209;51.050;13.678;2023-03-16T06:33:57;100607.09;;;2.11;75.26
49341;BME280;35209;51.050;13.678;2023-03-16T06:38:58;100597.53;;;1.40;79.88
49341;BME280;35209;51.050;13.678;2023-03-16T06:44:08;100608.56;;;1.25;80.97
49341;BME280;35209;51.050;13.678;2023-03-16T06:49:14;100606.50;;;1.05;83.60
49341;BME280;35209;51.050;13.678;2023-03-16T06:54:16;100610.19;;;1.20;83.87
49341;BME280;35209;51.050;13.678;2023-03-16T06:59:18;100623.69;;;1.56;81.01
49341;BME280;35209;51.050;13.678;2023-03-16T07:04:19;100621.69;;;2.01;76.63
49341;BME280;35209;51.050;13.678;2023-03-16T07:09:22;100626.00;;;2.02;77.11
49341;BME280;35209;51.050;13.678;2023-03-16T07:14:25;100611.66;;;1.61;80.85
49341;BME280;35209;51.050;13.678;2023-03-16T07:19:30;100632.16;;;2.12;77.01
49341;BME280;35209;51.050;13.678;2023-03-16T07:24:35;100633.50;;;2.52;74.44
49341;BME280;35209;51.050;13.678;2023-03-16T07:29:37;100631.69;;;2.45;75.37
49341;BME280;35209;51.050;13.678;2023-03-16T07:34:38;100631.78;;;2.53;75.87
49341;BME280;35209;51.050;13.678;2023-03-16T07:39:40;100629.00;;;2.38;75.77
49341;BME280;35209;51.050;13.678;2023-03-16T07:44:48;100619.69;;;2.57;75.52
49341;BME280;35209;51.050;13.678;2023-03-16T07:49:52;100616.81;;;2.27;76.55
49341;BME280;35209;51.050;13.678;2023-03-16T07:54:54;100618.44;;;2.18;77.85
49341;BME280;35209;51.050;13.678;2023-03-16T07:59:56;100631.75;;;2.48;76.04
49341;BME280;35209;51.050;13.678;2023-03-16T08:04:59;100626.63;;;2.58;74.65
49341;BME280;35209;51.050;13.678;2023-03-16T08:10:02;100637.25;;;2.81;72.52
49341;BME280;35209;51.050;13.678;2023-03-16T08:15:12;100633.28;;;3.27;71.38
49341;BME280;35209;51.050;13.678;2023-03-16T08:20:14;100627.09;;;3.07;71.58
49341;BME280;35209;51.050;13.678;2023-03-16T08:25:17;100632.50;;;3.34;71.27
49341;BME280;35209;51.050;13.678;2023-03-16T08:30:31;100639.69;;;3.79;70.92
49341;BME280;35209;51.050;13.678;2023-03-16T08:35:48;100644.22;;;4.25;67.67
49341;BME280;35209;51.050;13.678;2023-03-16T08:40:50;100643.22;;;3.86;69.21
49341;BME280;35209;51.050;13.678;2023-03-16T08:45:54;100638.22;;;4.38;68.03
49341;BME280;35209;51.050;13.678;2023-03-16T08:51:01;100642.66;;;4.71;66.51
49341;BME280;35209;51.050;13.678;2023-03-16T08:56:05;100642.66;;;5.36;62.36
49341;BME280;35209;51.050;13.678;2023-03-16T09:01:07;100641.81;;;5.32;63.81
49341;BME280;35209;51.050;13.678;2023-03-16T09:06:11;100644.41;;;5.37;61.35
49341;BME280;35209;51.050;13.678;2023-03-16T09:11:15;100644.31;;;6.02;57.93
49341;BME280;35209;51.050;13.678;2023-03-16T09:16:18;100645.22;;;5.77;58.60
49341;BME280;35209;51.050;13.678;2023-03-16T09:21:20;100647.84;;;5.77;59.66
49341;BME280;35209;51.050;13.678;2023-03-16T09:26:22;100656.41;;;6.26;58.21
49341;BME280;35209;51.050;13.678;2023-03-16T09:31:24;100645.53;;;6.98;53.84
49341;BME280;35209;51.050;13.678;2023-03-16T09:41:47;100640.63;;;7.63;52.30
49341;BME280;35209;51.050;13.678;2023-03-16T09:46:55;100632.34;;;8.00;51.46
49341;BME280;35209;51.050;13.678;2023-03-16T09:57:38;100631.16;;;8.25;49.36
49341;BME280;35209;51.050;13.678;2023-03-16T10:08:23;100629.56;;;8.15;50.21
49341;BME280;35209;51.050;13.678;2023-03-16T10:19:09;100630.44;;;8.80;48.47
49341;BME280;35209;51.050;13.678;2023-03-16T10:29:34;100640.88;;;8.17;48.26
49341;BME280;35209;51.050;13.678;2023-03-16T10:34:39;100627.69;;;8.88;46.97
49341;BME280;35209;51.050;13.678;2023-03-16T10:39:41;100627.09;;;9.25;47.11
49341;BME280;35209;51.050;13.678;2023-03-16T10:44:43;100615.66;;;9.30;44.58
49341;BME280;35209;51.050;13.678;2023-03-16T10:49:45;100619.59;;;9.54;46.14
49341;BME280;35209;51.050;13.678;2023-03-16T10:55:00;100610.09;;;9.47;45.64
49341;BME280;35209;51.050;13.678;2023-03-16T11:00:07;100606.44;;;9.57;43.46
49341;BME280;35209;51.050;13.678;2023-03-16T11:05:28;100603.97;;;9.47;43.95
49341;BME280;35209;51.050;13.678;2023-03-16T11:10:37;100610.13;;;9.92;43.62
49341;BME280;35209;51.050;13.678;2023-03-16T11:16:00;100597.06;;;10.32;41.87
49341;BME280;35209;51.050;13.678;2023-03-16T11:21:14;100580.59;;;10.23;41.58
49341;BME280;35209;51.050;13.678;2023-03-16T11:26:34;100572.38;;;10.40;41.79
49341;BME280;35209;51.050;13.678;2023-03-16T11:31:41;100564.06;;;10.95;40.38
49341;BME280;35209;51.050;13.678;2023-03-16T11:36:52;100566.34;;;10.73;41.84
49341;BME280;35209;51.050;13.678;2023-03-16T11:42:03;100560.28;;;10.70;38.82
49341;BME280;35209;51.050;13.678;2023-03-16T12:08:42;100544.00;;;10.14;37.70
49341;BME280;35209;51.050;13.678;2023-03-16T12:19:06;100521.16;;;9.77;39.08
49341;BME280;35209;51.050;13.678;2023-03-16T12:24:26;100518.34;;;9.43;38.07
49341;BME280;35209;51.050;13.678;2023-03-16T12:29:50;100516.56;;;9.45;38.72
49341;BME280;35209;51.050;13.678;2023-03-16T12:45:31;100504.03;;;9.14;41.70
49341;BME280;35209;51.050;13.678;2023-03-16T12:50:47;100500.31;;;9.24;39.91
49341;BME280;35209;51.050;13.678;2023-03-16T12:55:49;100502.28;;;8.62;40.13
49341;BME280;35209;51.050;13.678;2023-03-16T13:00:57;100493.75;;;8.51;39.81
49341;BME280;35209;51.050;13.678;2023-03-16T13:06:00;100487.44;;;8.64;40.89
49341;BME280;35209;51.050;13.678;2023-03-16T13:11:06;100479.16;;;8.87;38.92
49341;BME280;35209;51.050;13.678;2023-03-16T13:16:23;100481.22;;;8.70;39.40
49341;BME280;35209;51.050;13.678;2023-03-16T13:21:41;100472.25;;;8.27;37.74
49341;BME280;35209;51.050;13.678;2023-03-16T13:27:00;100465.00;;;8.45;37.40
49341;BME280;35209;51.050;13.678;2023-03-16T13:32:09;100458.16;;;8.38;37.46
49341;BME280;35209;51.050;13.678;2023-03-16T13:37:18;100460.63;;;8.47;36.00
49341;BME280;35209;51.050;13.678;2023-03-16T13:42:22;100466.81;;;8.43;36.76
49341;BME280;35209;51.050;13.678;2023-03-16T13:47:26;100457.94;;;8.51;36.78
49341;BME280;35209;51.050;13.678;2023-03-16T13:57:34;100447.16;;;8.13;39.24
49341;BME280;35209;51.050;13.678;2023-03-16T14:02:43;100435.41;;;8.40;37.71
49341;BME280;35209;51.050;13.678;2023-03-16T14:07:47;100436.19;;;8.46;37.43
49341;BME280;35209;51.050;13.678;2023-03-16T14:13:07;100431.09;;;8.35;36.41
49341;BME280;35209;51.050;13.678;2023-03-16T14:18:22;100427.50;;;8.43;37.89
49341;BME280;35209;51.050;13.678;2023-03-16T14:23:35;100416.09;;;8.45;37.70
49341;BME280;35209;51.050;13.678;2023-03-16T14:28:38;100420.31;;;8.54;38.29
49341;BME280;35209;51.050;13.678;2023-03-16T14:33:41;100426.28;;;8.62;38.42
49341;BME280;35209;51.050;13.678;2023-03-16T14:38:45;100422.06;;;8.53;39.02
49341;BME280;35209;51.050;13.678;2023-03-16T14:43:52;100424.81;;;8.47;38.46
49341;BME280;35209;51.050;13.678;2023-03-16T14:49:06;100413.34;;;8.53;38.43
49341;BME280;35209;51.050;13.678;2023-03-16T14:54:16;100415.50;;;8.26;40.46
49341;BME280;35209;51.050;13.678;2023-03-16T14:59:19;100413.56;;;8.42;40.60
49341;BME280;35209;51.050;13.678;2023-03-16T15:04:27;100406.16;;;8.12;39.89
49341;BME280;35209;51.050;13.678;2023-03-16T15:09:39;100411.88;;;8.38;39.32
49341;BME280;35209;51.050;13.678;2023-03-16T15:14:45;100393.81;;;8.20;39.14
49341;BME280;35209;51.050;13.678;2023-03-16T15:20:07;100393.81;;;8.18;39.74
49341;BME280;35209;51.050;13.678;2023-03-16T15:30:24;100394.47;;;7.77;43.19
49341;BME280;35209;51.050;13.678;2023-03-16T15:35:27;100387.13;;;8.00;43.04
49341;BME280;35209;51.050;13.678;2023-03-16T15:40:28;100398.03;;;7.71;44.09
49341;BME280;35209;51.050;13.678;2023-03-16T15:45:32;100398.94;;;7.69;44.09
49341;BME280;35209;51.050;13.678;2023-03-16T15:50:34;100379.78;;;7.67;45.43
49341;BME280;35209;51.050;13.678;2023-03-16T15:55:40;100360.66;;;7.63;45.10
49341;BME280;35209;51.050;13.678;2023-03-16T16:00:44;100360.63;;;7.65;45.35
49341;BME280;35209;51.050;13.678;2023-03-16T16:05:47;100368.88;;;7.37;44.95
49341;BME280;35209;51.050;13.678;2023-03-16T16:10:49;100370.59;;;7.40;44.81
49341;BME280;35209;51.050;13.678;2023-03-16T16:15:55;100379.63;;;7.14;46.34
49341;BME280;35209;51.050;13.678;2023-03-16T16:20:59;100378.59;;;7.24;46.05
49341;BME280;35209;51.050;13.678;2023-03-16T16:26:05;100385.75;;;7.10;46.91
49341;BME280;35209;51.050;13.678;2023-03-16T16:31:11;100391.16;;;6.96;48.13
49341;BME280;35209;51.050;13.678;2023-03-16T16:36:15;100407.19;;;6.64;49.50
49341;BME280;35209;51.050;13.678;2023-03-16T16:41:24;100403.75;;;6.54;50.10
49341;BME280;35209;51.050;13.678;2023-03-16T16:46:29;100391.56;;;6.58;49.78
49341;BME280;35209;51.050;13.678;2023-03-16T16:51:34;100392.41;;;6.62;49.84
49341;BME280;35209;51.050;13.678;2023-03-16T16:56:36;100381.16;;;6.53;50.17
49341;BME280;35209;51.050;13.678;2023-03-16T17:01:38;100382.25;;;6.28;51.43
49341;BME280;35209;51.050;13.678;2023-03-16T17:06:41;100378.00;;;6.16;51.25
49341;BME280;35209;51.050;13.678;2023-03-16T17:11:44;100384.19;;;6.01;51.72
49341;BME280;35209;51.050;13.678;2023-03-16T17:16:47;100394.53;;;6.15;50.56
49341;BME280;35209;51.050;13.678;2023-03-16T17:21:52;100383.38;;;5.98;51.22
49341;BME280;35209;51.050;13.678;2023-03-16T17:26:56;100386.00;;;5.95;51.38
49341;BME280;35209;51.050;13.678;2023-03-16T17:32:00;100393.84;;;5.84;51.57
49341;BME280;35209;51.050;13.678;2023-03-16T17:37:08;100401.78;;;5.72;52.34
49341;BME280;35209;51.050;13.678;2023-03-16T17:42:15;100393.97;;;5.66;52.23
49341;BME280;35209;51.050;13.678;2023-03-16T17:47:21;100384.38;;;5.71;51.99
49341;BME280;35209;51.050;13.678;2023-03-16T17:52:27;100368.88;;;5.49;52.73
49341;BME280;35209;51.050;13.678;2023-03-16T17:57:31;100365.41;;;5.44;53.15
49341;BME280;35209;51.050;13.678;2023-03-16T18:07:45;100363.72;;;5.45;53.54
49341;BME280;35209;51.050;13.678;2023-03-16T18:12:52;100371.59;;;5.26;53.83
49341;BME280;35209;51.050;13.678;2023-03-16T18:17:55;100361.22;;;5.23;53.88
49341;BME280;35209;51.050;13.678;2023-03-16T18:22:59;100354.34;;;5.05;54.54
49341;BME280;35209;51.050;13.678;2023-03-16T18:28:01;100352.59;;;5.00;54.41
49341;BME280;35209;51.050;13.678;2023-03-16T18:33:06;100346.44;;;5.19;54.23
49341;BME280;35209;51.050;13.678;2023-03-16T18:38:25;100353.50;;;5.00;55.33
49341;BME280;35209;51.050;13.678;2023-03-16T18:43:29;100361.34;;;4.90;55.05
49341;BME280;35209;51.050;13.678;2023-03-16T18:48:32;100354.34;;;5.02;54.83
49341;BME280;35209;51.050;13.678;2023-03-16T18:53:35;100342.25;;;4.85;55.56
49341;BME280;35209;51.050;13.678;2023-03-16T18:58:37;100336.00;;;5.24;54.00
49341;BME280;35209;51.050;13.678;2023-03-16T19:03:41;100342.19;;;4.98;54.63
49341;BME280;35209;51.050;13.678;2023-03-16T19:08:44;100340.38;;;5.13;53.31
49341;BME280;35209;51.050;13.678;2023-03-16T19:13:47;100348.19;;;5.13;53.77
49341;BME280;35209;51.050;13.678;2023-03-16T19:18:49;100342.13;;;5.18;53.82
49341;BME280;35209;51.050;13.678;2023-03-16T19:23:57;100329.16;;;5.01;54.93
49341;BME280;35209;51.050;13.678;2023-03-16T19:29:02;100330.03;;;4.99;54.60
49341;BME280;35209;51.050;13.678;2023-03-16T19:34:14;100317.03;;;4.90;55.06
49341;BME280;35209;51.050;13.678;2023-03-16T19:39:18;100312.81;;;4.63;55.81
49341;BME280;35209;51.050;13.678;2023-03-16T19:44:23;100315.41;;;4.63;56.54
49341;BME280;35209;51.050;13.678;2023-03-16T19:49:26;100309.34;;;4.65;56.79
49341;BME280;35209;51.050;13.678;2023-03-16T19:54:30;100316.31;;;4.51;57.16
49341;BME280;35209;51.050;13.678;2023-03-16T19:59:34;100318.09;;;4.15;58.47
49341;BME280;35209;51.050;13.678;2023-03-16T20:04:37;100317.25;;;4.10;59.18
49341;BME280;35209;51.050;13.678;2023-03-16T20:09:39;100317.25;;;4.22;59.41
49341;BME280;35209;51.050;13.678;2023-03-16T20:14:42;100319.84;;;4.35;58.59
49341;BME280;35209;51.050;13.678;2023-03-16T20:19:44;100316.38;;;4.26;59.14
49341;BME280;35209;51.050;13.678;2023-03-16T20:24:47;100306.88;;;3.99;60.22
49341;BME280;35209;51.050;13.678;2023-03-16T20:29:50;100306.88;;;3.86;60.92
49341;BME280;35209;51.050;13.678;2023-03-16T20:34:52;100307.72;;;3.92;60.83
49341;BME280;35209;51.050;13.678;2023-03-16T20:39:57;100301.66;;;4.01;60.65
49341;BME280;35209;51.050;13.678;2023-03-16T20:45:00;100302.53;;;4.04;59.64
49341;BME280;35209;51.050;13.678;2023-03-16T20:50:02;100296.38;;;4.42;58.43
49341;BME280;35209;51.050;13.678;2023-03-16T20:55:05;100286.88;;;4.35;58.56
49341;BME280;35209;51.050;13.678;2023-03-16T21:00:17;100276.53;;;3.95;59.50
49341;BME280;35209;51.050;13.678;2023-03-16T21:05:22;100284.31;;;4.03;59.74
49341;BME280;35209;51.050;13.678;2023-03-16T21:10:24;100280.00;;;3.79;59.88
49341;BME280;35209;51.050;13.678;2023-03-16T21:15:29;100258.28;;;4.12;59.42
49341;BME280;35209;51.050;13.678;2023-03-16T21:20:34;100257.41;;;4.25;58.21
49341;BME280;35209;51.050;13.678;2023-03-16T21:25:43;100259.19;;;4.03;58.84
49341;BME280;35209;51.050;13.678;2023-03-16T21:30:56;100254.84;;;3.84;58.97
49341;BME280;35209;51.050;13.678;2023-03-16T21:35:59;100235.75;;;4.00;58.94
49341;BME280;35209;51.050;13.678;2023-03-16T21:41:01;100242.66;;;4.26;56.78
49341;BME280;35209;51.050;13.678;2023-03-16T21:46:08;100250.47;;;4.23;56.25
49341;BME280;35209;51.050;13.678;2023-03-16T21:51:20;100256.47;;;4.40;55.47
49341;BME280;35209;51.050;13.678;2023-03-16T21:56:23;100247.84;;;4.30;56.03
49341;BME280;35209;51.050;13.678;2023-03-16T22:01:30;100252.25;;;4.04;56.34
49341;BME280;35209;51.050;13.678;2023-03-16T22:06:33;100240.09;;;4.09;56.19
49341;BME280;35209;51.050;13.678;2023-03-16T22:11:35;100242.66;;;4.20;56.10
49341;BME280;35209;51.050;13.678;2023-03-16T22:16:37;100220.19;;;3.82;57.30
49341;BME280;35209;51.050;13.678;2023-03-16T22:21:41;100222.75;;;3.97;56.99
49341;BME280;35209;51.050;13.678;2023-03-16T22:26:43;100215.84;;;3.92;56.95
49341;BME280;35209;51.050;13.678;2023-03-16T22:31:47;100213.19;;;4.12;56.20
49341;BME280;35209;51.050;13.678;2023-03-16T22:36:49;100202.84;;;3.90;57.00
49341;BME280;35209;51.050;13.678;2023-03-16T22:41:51;100191.56;;;3.94;55.74
49341;BME280;35209;51.050;13.678;2023-03-16T22:46:53;100182.88;;;4.03;55.69
49341;BME280;35209;51.050;13.678;2023-03-16T22:51:56;100180.25;;;3.98;55.64
49341;BME280;35209;51.050;13.678;2023-03-16T22:56:57;100169.84;;;4.04;55.86
49341;BME280;35209;51.050;13.678;2023-03-16T23:01:59;100176.84;;;3.84;55.98
49341;BME280;35209;51.050;13.678;2023-03-16T23:07:01;100170.75;;;3.96;56.02
49341;BME280;35209;51.050;13.678;2023-03-16T23:12:03;100182.84;;;4.12;55.21
49341;BME280;35209;51.050;13.678;2023-03-16T23:17:18;100170.66;;;4.23;55.32
49341;BME280;35209;51.050;13.678;2023-03-16T23:22:20;100179.34;;;4.15;55.04
49341;BME280;35209;51.050;13.678;2023-03-16T23:27:21;100177.63;;;4.14;54.79
49341;BME280;35209;51.050;13.678;2023-03-16T23:32:24;100174.22;;;3.89;55.09
49341;BME280;35209;51.050;13.678;2023-03-16T23:37:26;100173.38;;;3.79;55.06
49341;BME280;35209;51.050;13.678;2023-03-16T23:42:28;100165.56;;;3.87;55.08
49341;BME280;35209;51.050;13.678;2023-03-16T23:47:30;100153.44;;;3.86;54.56
49341;BME280;35209;51.050;13.678;2023-03-16T23:52:32;100149.13;;;3.74;54.67
49341;BME280;35209;51.050;13.678;2023-03-16T23:57:34;100141.22;;;4.06;53.73
